Time;durP1;ratioP1;P1;durP2;ratioP2;P2;SDS_P1;SDS_P2;PMS_P1;PMS_P2;Temp;Humidity;BMP_temperature;BMP_pressure;BME280_temperature;BME280_humidity;BME280_pressure;Samples;Min_cycle;Max_cycle;Signal;HPM_P1;HPM_P2
2023/04/05 00:01:28;;;;;;;10.43;8.20;;;7.90;99.90;;;;;;5027248;28;20252;-94
2023/04/05 00:04:07;;;;;;;13.67;8.37;;;7.80;99.90;;;;;;5044864;28;20230;-93
2023/04/05 00:06:33;;;;;;;13.70;8.47;;;7.50;99.90;;;;;;5048544;28;20172;-90
2023/04/05 00:09:02;;;;;;;11.90;7.93;;;7.50;99.90;;;;;;5059121;28;20171;-92
2023/04/05 00:11:30;;;;;;;10.40;6.97;;;7.50;99.90;;;;;;5059478;28;20233;-90
2023/04/05 00:13:58;;;;;;;11.10;7.37;;;7.40;99.90;;;;;;5071815;23;20255;-90
2023/04/05 00:16:28;;;;;;;14.63;8.17;;;7.40;99.90;;;;;;5044684;28;20173;-93
2023/04/05 00:18:59;;;;;;;11.07;7.50;;;7.60;99.90;;;;;;5042984;28;20232;-93
2023/04/05 00:21:25;;;;;;;14.80;7.97;;;7.60;99.90;;;;;;5042082;28;20184;-92
2023/04/05 00:23:58;;;;;;;12.77;7.70;;;7.50;99.90;;;;;;5041167;28;20260;-91
2023/04/05 00:26:25;;;;;;;10.00;7.27;;;7.60;99.90;;;;;;5041462;28;20216;-91
2023/04/05 00:28:51;;;;;;;12.97;7.23;;;7.40;99.90;;;;;;5040629;28;20200;-93
2023/04/05 00:31:17;;;;;;;10.43;8.33;;;7.30;99.90;;;;;;5024274;28;20200;-92
2023/04/05 00:33:43;;;;;;;12.00;7.93;;;7.30;99.90;;;;;;5041859;28;20177;-91
2023/04/05 00:36:18;;;;;;;12.27;7.37;;;7.30;99.90;;;;;;5043051;28;20223;-89
2023/04/05 00:38:46;;;;;;;11.20;8.10;;;7.10;99.90;;;;;;5039687;28;20613;-90
2023/04/05 00:41:13;;;;;;;13.53;7.77;;;7.10;99.90;;;;;;5061678;28;20169;-91
2023/04/05 00:43:40;;;;;;;10.60;8.20;;;7.00;99.90;;;;;;5048576;28;20191;-89
2023/04/05 00:46:09;;;;;;;11.13;8.13;;;7.00;99.90;;;;;;5041999;28;20173;-88
2023/04/05 00:48:35;;;;;;;12.97;8.23;;;7.20;99.90;;;;;;5040869;28;20165;-91
2023/04/05 00:51:01;;;;;;;11.60;8.60;;;7.30;99.90;;;;;;5040611;28;20173;-91
2023/04/05 00:53:27;;;;;;;13.43;8.90;;;7.20;99.90;;;;;;5066091;28;20172;-91
2023/04/05 00:55:54;;;;;;;14.33;7.93;;;7.10;99.90;;;;;;5043483;28;20161;-91
2023/04/05 00:58:23;;;;;;;13.37;8.50;;;7.10;99.90;;;;;;5059549;28;20278;-91
2023/04/05 01:01:01;;;;;;;13.00;8.00;;;7.20;99.90;;;;;;5048990;28;20257;-87
2023/04/05 01:03:30;;;;;;;12.30;8.77;;;7.10;99.90;;;;;;5041857;28;20206;-89
2023/04/05 01:06:19;;;;;;;13.03;8.37;;;7.10;99.90;;;;;;5044558;28;20262;-89
2023/04/05 01:09:03;;;;;;;10.90;7.83;;;6.90;99.90;;;;;;5062480;28;20199;-89
2023/04/05 01:11:31;;;;;;;12.70;8.67;;;6.90;99.90;;;;;;5079245;28;20148;-91
2023/04/05 01:13:58;;;;;;;12.07;7.83;;;6.80;99.90;;;;;;5058962;28;20185;-88
2023/04/05 01:16:31;;;;;;;15.40;8.40;;;6.80;99.90;;;;;;5050377;28;20165;-88
2023/04/05 01:19:02;;;;;;;12.80;8.50;;;6.80;99.90;;;;;;5043247;28;20213;-88
2023/04/05 01:21:38;;;;;;;11.83;8.20;;;6.70;99.90;;;;;;5041185;28;20173;-89
2023/04/05 01:24:19;;;;;;;13.73;8.90;;;6.80;99.90;;;;;;5042810;28;20172;-90
2023/04/05 01:27:06;;;;;;;13.23;9.07;;;6.80;99.90;;;;;;5041358;28;20192;-89
2023/04/05 01:29:47;;;;;;;13.37;8.37;;;6.80;99.90;;;;;;5059292;28;20244;-90
2023/04/05 01:32:28;;;;;;;12.67;8.97;;;6.80;99.90;;;;;;5058835;28;20649;-89
2023/04/05 01:35:21;;;;;;;14.30;8.33;;;6.90;99.90;;;;;;5042488;28;20176;-90
2023/04/05 01:37:51;;;;;;;11.70;8.87;;;6.90;99.90;;;;;;5040464;28;20196;-89
2023/04/05 01:40:18;;;;;;;13.20;8.90;;;6.90;99.90;;;;;;5040738;28;20181;-89
2023/04/05 01:42:45;;;;;;;13.10;8.80;;;6.90;99.90;;;;;;5054183;28;20160;-90
2023/04/05 01:45:11;;;;;;;12.37;8.67;;;6.70;99.90;;;;;;5061396;28;20177;-91
2023/04/05 01:47:37;;;;;;;11.40;8.40;;;6.70;99.90;;;;;;5058474;28;20173;-91
2023/04/05 01:50:06;;;;;;;14.37;9.33;;;6.60;99.90;;;;;;5057357;28;20183;-88
2023/04/05 01:52:36;;;;;;;14.00;9.03;;;6.60;99.90;;;;;;5046791;28;20161;-88
2023/04/05 01:55:23;;;;;;;16.17;9.43;;;6.60;99.90;;;;;;5045125;28;20164;-88
2023/04/05 01:57:51;;;;;;;14.40;8.57;;;6.50;99.90;;;;;;5044812;28;20250;-89
2023/04/05 02:00:18;;;;;;;15.03;8.73;;;6.50;99.90;;;;;;5041615;28;20177;-89
2023/04/05 02:02:47;;;;;;;14.13;8.90;;;6.60;99.90;;;;;;5042593;28;20181;-88
2023/04/05 02:05:13;;;;;;;12.77;9.30;;;6.50;99.90;;;;;;5049107;28;20176;-88
2023/04/05 02:07:39;;;;;;;15.23;9.40;;;6.50;99.90;;;;;;5041795;28;20184;-90
2023/04/05 02:10:06;;;;;;;16.57;9.17;;;6.50;99.90;;;;;;5059008;28;20190;-89
2023/04/05 02:12:32;;;;;;;15.80;9.23;;;6.40;99.90;;;;;;5022492;28;20176;-88
2023/04/05 02:15:01;;;;;;;16.93;9.90;;;6.50;99.90;;;;;;5056432;28;20246;-91
2023/04/05 02:17:37;;;;;;;11.50;8.17;;;6.80;99.90;;;;;;5061669;28;20172;-88
2023/04/05 02:20:07;;;;;;;13.87;9.60;;;6.50;99.90;;;;;;5059149;28;20196;-89
2023/04/05 02:22:36;;;;;;;15.17;9.43;;;6.50;99.90;;;;;;5055841;28;20231;-89
2023/04/05 02:25:11;;;;;;;12.83;8.73;;;6.40;99.90;;;;;;5048846;28;20173;-89
2023/04/05 02:27:37;;;;;;;15.57;9.20;;;6.30;99.90;;;;;;5047657;28;20180;-89
2023/04/05 02:30:08;;;;;;;15.00;9.70;;;6.50;99.90;;;;;;5043485;28;20299;-90
2023/04/05 02:32:34;;;;;;;15.40;10.03;;;6.70;99.90;;;;;;5039280;28;20625;-91
2023/04/05 02:35:01;;;;;;;15.97;10.60;;;6.90;99.90;;;;;;5038265;28;20165;-91
2023/04/05 02:37:29;;;;;;;15.27;10.10;;;7.10;99.90;;;;;;5040088;28;20173;-88
2023/04/05 02:39:54;;;;;;;15.33;9.57;;;6.80;99.90;;;;;;5038293;28;20303;-92
2023/04/05 02:42:20;;;;;;;14.93;9.23;;;6.50;99.90;;;;;;5039119;28;20208;-89
2023/04/05 02:44:46;;;;;;;15.00;10.43;;;6.70;99.90;;;;;;5055840;28;20180;-88
2023/04/05 02:47:16;;;;;;;14.40;9.70;;;6.70;99.90;;;;;;5052896;28;20173;-89
2023/04/05 02:49:41;;;;;;;13.97;10.20;;;6.70;99.90;;;;;;5047060;28;20180;-90
2023/04/05 02:52:10;;;;;;;12.77;9.67;;;6.80;99.90;;;;;;5039113;28;20173;-90
2023/04/05 02:54:36;;;;;;;16.77;10.40;;;6.90;99.90;;;;;;5053907;28;20208;-90
2023/04/05 02:57:02;;;;;;;16.77;10.40;;;6.90;99.90;;;;;;5049306;28;20181;-91
2023/04/05 02:59:30;;;;;;;14.63;10.27;;;7.00;99.90;;;;;;5046843;28;20420;-90
2023/04/05 03:01:59;;;;;;;13.70;9.13;;;7.10;99.90;;;;;;5044528;28;20212;-89
2023/04/05 03:04:28;;;;;;;17.87;10.17;;;7.10;99.90;;;;;;5057077;28;20183;-91
2023/04/05 03:06:56;;;;;;;15.60;9.87;;;7.00;99.90;;;;;;5040348;28;20180;-89
2023/04/05 03:09:22;;;;;;;15.17;9.93;;;7.00;99.90;;;;;;5050241;28;20172;-94
2023/04/05 03:11:49;;;;;;;19.20;11.27;;;7.00;99.90;;;;;;5059697;28;20176;-88
2023/04/05 03:14:15;;;;;;;17.47;11.00;;;6.90;99.90;;;;;;5037978;28;20200;-90
2023/04/05 03:16:45;;;;;;;16.30;10.03;;;6.90;99.90;;;;;;5054253;28;20181;-88
2023/04/05 03:19:12;;;;;;;16.07;10.03;;;6.80;99.90;;;;;;5054409;28;20208;-89
2023/04/05 03:21:39;;;;;;;19.90;9.90;;;6.80;99.90;;;;;;5055970;28;20195;-90
2023/04/05 03:24:09;;;;;;;14.80;9.80;;;6.80;99.90;;;;;;5045886;28;20173;-90
2023/04/05 03:26:36;;;;;;;15.90;10.23;;;6.70;99.90;;;;;;5050851;28;20172;-92
2023/04/05 03:29:13;;;;;;;14.63;9.97;;;6.60;99.90;;;;;;5046696;28;20185;-91
2023/04/05 03:31:39;;;;;;;14.10;9.60;;;6.60;99.90;;;;;;5064466;28;20211;-92
2023/04/05 03:37:46;;;;;;;15.40;9.57;;;6.40;99.90;;;;;;5079689;28;20180;-90
2023/04/05 03:43:34;;;;;;;16.57;9.87;;;6.30;99.90;;;;;;5060944;28;20188;-92
2023/04/05 03:46:01;;;;;;;13.33;9.33;;;6.20;99.90;;;;;;5026879;28;20172;-93
2023/04/05 03:48:26;;;;;;;21.80;10.43;;;6.10;99.90;;;;;;5043200;28;20215;-92
2023/04/05 03:50:52;;;;;;;18.13;10.00;;;6.10;99.90;;;;;;5045066;28;20173;-91
2023/04/05 03:53:18;;;;;;;19.07;9.43;;;6.00;99.90;;;;;;5047821;28;20236;-89
2023/04/05 03:55:49;;;;;;;15.80;10.37;;;5.90;99.90;;;;;;5056227;28;20207;-91
2023/04/05 03:58:20;;;;;;;21.57;10.23;;;5.90;99.90;;;;;;5045465;28;20394;-91
2023/04/05 04:00:49;;;;;;;13.63;10.03;;;6.00;99.90;;;;;;5051543;28;20655;-91
2023/04/05 04:03:15;;;;;;;14.93;9.83;;;6.00;99.90;;;;;;5047433;28;20165;-91
2023/04/05 04:05:43;;;;;;;19.47;10.87;;;5.90;99.90;;;;;;5057285;28;20184;-92
2023/04/05 04:08:09;;;;;;;14.93;10.20;;;6.00;99.90;;;;;;5062982;28;20207;-91
2023/04/05 04:10:36;;;;;;;16.83;10.07;;;6.00;99.90;;;;;;5059985;28;20191;-89
2023/04/05 04:13:02;;;;;;;16.30;10.40;;;6.00;99.90;;;;;;5045481;28;20169;-92
2023/04/05 04:15:39;;;;;;;16.40;9.90;;;6.00;99.90;;;;;;5061765;28;20191;-89
2023/04/05 04:18:10;;;;;;;14.33;9.73;;;5.90;99.90;;;;;;5051122;28;20172;-90
2023/04/05 04:21:09;;;;;;;20.67;10.10;;;5.90;99.90;;;;;;5049392;28;20173;-93
2023/04/05 04:23:38;;;;;;;17.07;9.97;;;6.00;99.90;;;;;;5045535;28;20180;-89
2023/04/05 04:26:06;;;;;;;15.50;9.87;;;5.90;99.90;;;;;;5043585;28;20231;-89
2023/04/05 04:28:33;;;;;;;14.93;10.27;;;5.70;99.90;;;;;;5046125;28;20199;-89
2023/04/05 04:31:04;;;;;;;15.73;10.13;;;5.60;99.90;;;;;;5053569;28;20196;-89
2023/04/05 04:33:30;;;;;;;15.43;9.40;;;6.00;99.90;;;;;;5050212;28;20183;-89
2023/04/05 04:35:56;;;;;;;13.87;9.00;;;5.90;99.90;;;;;;5049955;28;20181;-89
2023/04/05 04:38:24;;;;;;;19.53;9.07;;;5.70;99.90;;;;;;5052446;28;20208;-90
2023/04/05 04:40:52;;;;;;;13.20;8.70;;;5.60;99.90;;;;;;5048335;28;20192;-90
2023/04/05 04:43:26;;;;;;;17.20;9.53;;;5.60;99.90;;;;;;5048657;28;20207;-88
2023/04/05 04:45:53;;;;;;;15.80;9.87;;;5.60;99.90;;;;;;5055713;28;20320;-92
2023/04/05 04:48:20;;;;;;;14.50;9.60;;;5.50;99.90;;;;;;5044882;28;20193;-91
2023/04/05 04:50:48;;;;;;;15.93;9.87;;;5.60;99.90;;;;;;5041627;28;20169;-89
2023/04/05 04:53:16;;;;;;;18.13;9.70;;;5.50;99.90;;;;;;5043108;28;20169;-92
2023/04/05 04:55:44;;;;;;;15.70;9.87;;;5.60;99.90;;;;;;5048227;28;20181;-90
2023/04/05 04:58:11;;;;;;;13.63;9.67;;;5.50;99.90;;;;;;5046930;28;20271;-91
2023/04/05 05:00:43;;;;;;;14.03;9.67;;;5.60;99.90;;;;;;5061796;28;20185;-90
2023/04/05 05:03:10;;;;;;;16.27;9.40;;;5.70;99.90;;;;;;5061464;28;20181;-90
2023/04/05 05:05:45;;;;;;;18.87;9.80;;;5.70;99.90;;;;;;5061680;28;20165;-90
2023/04/05 05:08:13;;;;;;;15.40;9.70;;;5.80;99.90;;;;;;5062236;28;20160;-90
2023/04/05 05:10:40;;;;;;;18.13;9.77;;;5.80;99.90;;;;;;5057634;28;20177;-89
2023/04/05 05:13:06;;;;;;;19.10;9.57;;;5.60;99.90;;;;;;5048237;28;20188;-88
2023/04/05 05:15:32;;;;;;;15.73;9.50;;;5.50;99.90;;;;;;5042963;28;20197;-90
2023/04/05 05:17:57;;;;;;;14.00;9.13;;;5.50;99.90;;;;;;5042885;28;20173;-91
2023/04/05 05:20:27;;;;;;;20.17;10.20;;;5.50;99.90;;;;;;5049287;28;20181;-92
2023/04/05 05:22:53;;;;;;;15.33;9.90;;;5.50;99.90;;;;;;5061188;28;20169;-89
2023/04/05 05:25:21;;;;;;;23.13;10.37;;;5.60;99.90;;;;;;5047360;28;20239;-89
2023/04/05 05:30:22;;;;;;;21.03;9.77;;;5.40;99.90;;;;;;5036521;28;20205;-89
2023/04/05 05:33:10;;;;;;;20.67;10.67;;;5.40;99.90;;;;;;5020439;28;20178;-88
2023/04/05 05:35:50;;;;;;;17.57;10.13;;;5.50;99.90;;;;;;5034747;28;20166;-91
2023/04/05 05:38:16;;;;;;;22.60;11.33;;;5.60;99.90;;;;;;5014308;28;20202;-90
2023/04/05 05:40:44;;;;;;;19.13;10.70;;;5.60;99.90;;;;;;5006984;28;20174;-90
2023/04/05 05:43:16;;;;;;;20.30;11.27;;;5.60;99.90;;;;;;5010867;28;20257;-89
2023/04/05 05:45:41;;;;;;;18.73;10.60;;;5.70;99.90;;;;;;5011012;28;20174;-91
2023/04/05 05:48:07;;;;;;;20.27;10.93;;;5.80;99.90;;;;;;5016155;28;20182;-89
2023/04/05 05:50:33;;;;;;;16.27;10.77;;;5.80;99.90;;;;;;5031443;28;20181;-92
2023/04/05 05:52:59;;;;;;;25.63;11.47;;;5.80;99.90;;;;;;5018234;28;20170;-90
2023/04/05 05:55:28;;;;;;;18.43;10.97;;;5.90;99.90;;;;;;5005891;28;20186;-94
2023/04/05 05:57:54;;;;;;;26.43;10.50;;;5.90;99.90;;;;;;5001116;28;20170;-91
2023/04/05 06:00:21;;;;;;;19.97;10.77;;;6.00;99.90;;;;;;5001665;28;20178;-89
2023/04/05 06:02:51;;;;;;;18.70;10.73;;;6.00;99.90;;;;;;5014900;28;20228;-89
2023/04/05 06:05:24;;;;;;;22.70;12.17;;;6.00;99.90;;;;;;5021747;28;20178;-90
2023/04/05 06:07:50;;;;;;;26.37;11.07;;;5.90;99.90;;;;;;5003227;28;20170;-89
2023/04/05 06:10:18;;;;;;;26.23;11.03;;;5.90;99.90;;;;;;5000160;28;20170;-90
2023/04/05 06:12:49;;;;;;;23.00;10.43;;;5.90;99.90;;;;;;5001266;28;20216;-89
2023/04/05 06:15:16;;;;;;;18.63;11.57;;;6.20;99.90;;;;;;5004774;28;20252;-88
2023/04/05 06:17:41;;;;;;;20.83;10.60;;;6.10;99.90;;;;;;5019801;28;20174;-88
2023/04/05 06:20:14;;;;;;;17.67;10.60;;;6.20;99.90;;;;;;4999410;28;20202;-89
2023/04/05 06:22:40;;;;;;;20.80;10.90;;;6.20;99.90;;;;;;5009284;28;20166;-90
2023/04/05 06:25:07;;;;;;;16.93;10.27;;;6.30;99.90;;;;;;5033864;28;20261;-89
2023/04/05 06:27:34;;;;;;;19.07;10.30;;;6.40;99.90;;;;;;5016079;28;20170;-89
2023/04/05 06:30:06;;;;;;;20.97;11.60;;;6.50;99.90;;;;;;5003037;28;20228;-88
2023/04/05 06:32:34;;;;;;;17.27;10.57;;;6.60;99.90;;;;;;5006801;28;20166;-89
2023/04/05 06:35:02;;;;;;;20.50;11.47;;;6.70;99.90;;;;;;5002419;28;20717;-88
2023/04/05 06:37:30;;;;;;;20.83;11.37;;;6.60;99.90;;;;;;5012920;28;20174;-87
2023/04/05 06:39:55;;;;;;;20.13;11.37;;;6.60;99.90;;;;;;4997209;28;20218;-86
2023/04/05 06:42:22;;;;;;;19.67;10.97;;;6.90;99.90;;;;;;5013309;28;20186;-87
2023/04/05 06:44:51;;;;;;;18.70;11.20;;;7.10;99.90;;;;;;5013493;28;20178;-87
2023/04/05 06:47:16;;;;;;;17.10;10.50;;;7.20;99.90;;;;;;5015731;28;20200;-90
2023/04/05 06:49:48;;;;;;;26.27;11.43;;;7.30;99.90;;;;;;4998126;28;20182;-87
2023/04/05 06:52:19;;;;;;;20.00;10.73;;;7.40;99.90;;;;;;4990924;28;20198;-93
2023/04/05 06:54:46;;;;;;;19.90;10.70;;;7.60;99.90;;;;;;4994179;28;20178;-91
2023/04/05 06:57:17;;;;;;;18.30;11.23;;;7.70;99.90;;;;;;5003419;28;20171;-90
2023/04/05 06:59:43;;;;;;;20.57;10.97;;;7.70;99.90;;;;;;4987955;28;20225;-92
2023/04/05 07:02:11;;;;;;;19.37;10.80;;;7.90;99.90;;;;;;5006905;28;20174;-92
2023/04/05 07:04:38;;;;;;;24.57;11.80;;;8.00;99.90;;;;;;5002893;28;20177;-89
2023/04/05 07:07:05;;;;;;;24.00;11.03;;;8.00;99.90;;;;;;5025510;28;20205;-92
2023/04/05 07:09:34;;;;;;;27.40;11.93;;;8.00;99.90;;;;;;5009782;28;20186;-89
2023/04/05 07:12:02;;;;;;;22.70;11.43;;;8.10;99.90;;;;;;5019665;28;20190;-89
2023/04/05 07:14:36;;;;;;;24.07;11.57;;;8.20;99.90;;;;;;5014111;28;20628;-89
2023/04/05 07:17:03;;;;;;;22.77;11.57;;;8.20;99.90;;;;;;5007681;28;20177;-88
2023/04/05 07:19:29;;;;;;;28.53;11.67;;;8.30;99.90;;;;;;5005375;28;20229;-88
2023/04/05 07:21:55;;;;;;;29.17;11.90;;;8.40;99.90;;;;;;5015823;28;20166;-90
2023/04/05 07:24:25;;;;;;;24.80;11.70;;;8.50;99.90;;;;;;5009991;28;20210;-95
2023/04/05 07:26:51;;;;;;;29.97;12.60;;;8.60;99.90;;;;;;5024206;28;20206;-84
2023/04/05 07:29:17;;;;;;;29.60;12.03;;;8.60;99.90;;;;;;5019404;28;20214;-87
2023/04/05 07:31:43;;;;;;;25.90;11.63;;;8.40;99.90;;;;;;5009754;28;20191;-89
2023/04/05 07:34:12;;;;;;;21.17;11.73;;;8.40;99.90;;;;;;5003734;28;20174;-90
2023/04/05 07:36:46;;;;;;;16.43;11.23;;;8.40;99.90;;;;;;4990254;28;20266;-92
2023/04/05 07:39:12;;;;;;;17.47;11.60;;;8.70;99.90;;;;;;5011029;28;20205;-88
2023/04/05 07:41:38;;;;;;;20.07;11.43;;;8.60;99.90;;;;;;5034690;28;20194;-92
2023/04/05 07:44:11;;;;;;;21.60;11.60;;;9.10;99.90;;;;;;5016665;28;20198;-83
2023/04/05 07:46:38;;;;;;;21.03;11.17;;;8.80;99.90;;;;;;5016809;28;20188;-84
2023/04/05 07:49:05;;;;;;;22.77;12.13;;;9.00;99.90;;;;;;5028712;28;20213;-89
2023/04/05 07:51:35;;;;;;;21.63;11.77;;;9.00;99.90;;;;;;4983674;28;20194;-84
2023/04/05 07:54:02;;;;;;;20.27;11.07;;;9.10;99.90;;;;;;4998843;28;20178;-85
2023/04/05 07:56:29;;;;;;;20.33;11.03;;;9.30;99.90;;;;;;4999949;28;20178;-89
2023/04/05 07:58:55;;;;;;;20.37;11.20;;;9.50;99.90;;;;;;5014272;28;20249;-84
2023/04/05 08:01:22;;;;;;;20.47;10.30;;;9.70;99.90;;;;;;5003458;28;20253;-87
2023/04/05 08:03:48;;;;;;;27.87;12.37;;;9.70;99.90;;;;;;5009881;28;20270;-86
2023/04/05 08:06:18;;;;;;;15.70;10.60;;;9.80;99.90;;;;;;5017814;28;20313;-87
2023/04/05 08:08:45;;;;;;;18.73;10.97;;;9.90;99.90;;;;;;5017887;28;20237;-86
2023/04/05 08:11:18;;;;;;;22.37;11.53;;;10.00;99.90;;;;;;5015082;28;20190;-87
2023/04/05 08:13:54;;;;;;;;;;;;;;;;;;;;;
2023/04/05 08:16:23;;;;;;;25.20;11.30;;;10.00;99.90;;;;;;5022606;28;20241;-87
2023/04/05 08:18:48;;;;;;;19.53;11.43;;;10.20;99.90;;;;;;4993977;28;20289;-84
2023/04/05 08:21:14;;;;;;;19.97;10.50;;;10.30;99.90;;;;;;5002297;28;20213;-91
2023/04/05 08:23:41;;;;;;;18.00;10.70;;;10.50;99.90;;;;;;5021284;28;20178;-86
2023/04/05 08:26:07;;;;;;;16.77;9.83;;;10.60;99.90;;;;;;5008904;28;20265;-87
2023/04/05 08:28:35;;;;;;;15.13;9.70;;;10.90;99.90;;;;;;5003016;28;20202;-82
2023/04/05 08:31:01;;;;;;;14.30;9.40;;;11.00;99.90;;;;;;5012906;28;20201;-83
2023/04/05 08:33:29;;;;;;;10.50;6.80;;;11.10;99.90;;;;;;5017359;28;20174;-83
2023/04/05 08:35:56;;;;;;;11.33;6.67;;;11.20;99.90;;;;;;5020145;28;20170;-83
2023/04/05 08:38:22;;;;;;;11.83;7.50;;;11.20;99.90;;;;;;5012327;28;20210;-82
2023/04/05 08:40:48;;;;;;;11.43;6.43;;;10.90;99.90;;;;;;4988679;28;20186;-85
2023/04/05 08:43:32;;;;;;;8.97;6.73;;;10.60;99.90;;;;;;5002417;28;20184;-85
2023/04/05 08:46:02;;;;;;;14.37;6.80;;;10.60;99.90;;;;;;5001199;28;20190;-87
2023/04/05 08:48:31;;;;;;;12.60;7.53;;;10.80;99.90;;;;;;5002433;28;20170;-85
2023/04/05 08:51:08;;;;;;;15.33;7.10;;;11.10;99.90;;;;;;5005385;28;20251;-92
2023/04/05 08:53:40;;;;;;;10.00;6.87;;;11.40;99.90;;;;;;5004099;28;20213;-87
2023/04/05 08:56:08;;;;;;;8.87;6.33;;;11.70;99.90;;;;;;5012316;28;20197;-92
2023/04/05 08:58:38;;;;;;;12.40;7.40;;;11.70;99.90;;;;;;5012886;28;20205;-93
2023/04/05 09:01:06;;;;;;;10.27;6.97;;;11.80;99.90;;;;;;5016130;28;20197;-90
2023/04/05 09:03:36;;;;;;;10.37;7.63;;;11.10;99.90;;;;;;5011172;28;20174;-89
2023/04/05 09:06:08;;;;;;;14.63;7.80;;;11.20;99.90;;;;;;5004714;28;20197;-87
2023/04/05 09:08:35;;;;;;;10.07;7.03;;;11.30;99.90;;;;;;5024009;28;20523;-88
2023/04/05 09:11:01;;;;;;;10.47;7.10;;;11.50;99.90;;;;;;4989700;28;20197;-89
2023/04/05 09:13:27;;;;;;;12.47;7.57;;;11.40;99.90;;;;;;4999904;28;20270;-90
2023/04/05 09:15:54;;;;;;;11.83;7.40;;;11.00;99.90;;;;;;4989293;28;20175;-90
2023/04/05 09:18:21;;;;;;;10.47;7.27;;;11.00;99.90;;;;;;5016055;28;20184;-89
2023/04/05 09:20:50;;;;;;;13.97;8.13;;;11.10;99.90;;;;;;5035110;28;20193;-89
2023/04/05 09:23:34;;;;;;;11.80;7.63;;;11.10;99.90;;;;;;5018370;28;20171;-88
2023/04/05 09:26:24;;;;;;;12.87;8.13;;;11.30;99.90;;;;;;5017797;28;20233;-93
2023/04/05 09:28:51;;;;;;;10.07;8.50;;;11.10;99.90;;;;;;5001446;28;20210;-90
2023/04/05 09:31:34;;;;;;;10.63;7.97;;;10.80;99.90;;;;;;5000145;28;20197;-90
2023/04/05 09:34:17;;;;;;;9.27;7.53;;;10.70;99.90;;;;;;4986299;28;20195;-90
2023/04/05 09:36:44;;;;;;;10.97;8.00;;;10.60;99.90;;;;;;5004168;28;20337;-92
2023/04/05 09:39:32;;;;;;;10.90;8.13;;;10.50;99.90;;;;;;4998392;28;20215;-93
2023/04/05 09:42:21;;;;;;;12.97;8.10;;;10.40;99.90;;;;;;5033683;28;20178;-92
2023/04/05 09:45:21;;;;;;;10.33;7.33;;;10.50;99.90;;;;;;5021599;28;20162;-94
2023/04/05 09:48:48;;;;;;;11.50;8.20;;;10.20;99.90;;;;;;5023343;28;20154;-90
2023/04/05 09:51:37;;;;;;;9.63;6.90;;;10.30;99.90;;;;;;5142864;23;20225;-89
2023/04/05 09:54:09;;;;;;;11.80;7.87;;;10.50;99.90;;;;;;5058782;28;20176;-85
2023/04/05 09:56:52;;;;;;;13.40;8.50;;;10.50;99.90;;;;;;5078662;23;20232;-90
2023/04/05 09:59:19;;;;;;;12.77;8.53;;;10.50;99.90;;;;;;5039992;28;20208;-89
2023/04/05 10:01:50;;;;;;;10.80;7.80;;;10.60;99.90;;;;;;5035166;28;20184;-88
2023/04/05 10:04:20;;;;;;;14.67;8.30;;;10.60;99.90;;;;;;5053365;28;20161;-88
2023/04/05 10:07:09;;;;;;;10.37;8.03;;;10.50;99.90;;;;;;5039863;28;20248;-87
2023/04/05 10:09:38;;;;;;;11.03;8.13;;;10.60;99.90;;;;;;5021703;28;20626;-88
2023/04/05 10:12:46;;;;;;;12.77;7.80;;;10.80;99.90;;;;;;5036496;28;20216;-87
2023/04/05 10:15:13;;;;;;;10.83;7.37;;;10.90;99.90;;;;;;5081069;23;20235;-87
2023/04/05 10:18:15;;;;;;;14.73;7.40;;;11.10;99.90;;;;;;5075037;28;20168;-87
2023/04/05 10:21:05;;;;;;;12.53;7.40;;;11.10;99.90;;;;;;5076437;28;20180;-88
2023/04/05 10:23:45;;;;;;;11.60;7.73;;;11.00;99.90;;;;;;5074167;28;20167;-89
2023/04/05 10:26:34;;;;;;;14.50;8.37;;;11.00;99.90;;;;;;5094605;28;20202;-87
2023/04/05 10:29:28;;;;;;;10.43;7.50;;;11.20;99.90;;;;;;5096759;28;20203;-93
2023/04/05 10:32:23;;;;;;;12.37;7.73;;;11.30;99.90;;;;;;5078880;28;20178;-89
2023/04/05 10:35:25;;;;;;;10.77;8.10;;;11.10;99.90;;;;;;5082345;28;20191;-88
2023/04/05 10:38:46;;;;;;;10.53;8.03;;;11.10;99.90;;;;;;5073043;28;20167;-87
2023/04/05 10:41:46;;;;;;;12.97;7.87;;;11.10;99.90;;;;;;5077855;28;20283;-87
2023/04/05 10:44:26;;;;;;;13.30;8.10;;;10.90;99.90;;;;;;5077190;28;20251;-88
2023/04/05 10:47:18;;;;;;;11.97;7.73;;;10.90;99.90;;;;;;5092378;28;20200;-89
2023/04/05 10:49:56;;;;;;;11.47;7.80;;;10.90;99.90;;;;;;5074860;28;20266;-92
2023/04/05 10:52:43;;;;;;;12.00;7.57;;;11.10;99.90;;;;;;5090705;28;20176;-88
2023/04/05 10:55:38;;;;;;;13.37;8.50;;;11.30;99.90;;;;;;5089806;28;20256;-87
2023/04/05 10:58:09;;;;;;;11.10;7.83;;;11.30;99.90;;;;;;5078832;28;20194;-88
2023/04/05 11:00:45;;;;;;;11.30;8.13;;;11.40;99.90;;;;;;5089804;28;20731;-86
2023/04/05 11:03:54;;;;;;;11.77;8.23;;;11.60;99.90;;;;;;5077380;28;20229;-87
2023/04/05 11:06:52;;;;;;;12.70;8.43;;;11.50;99.90;;;;;;5091155;28;20191;-88
2023/04/05 11:10:20;;;;;;;10.23;8.30;;;11.70;99.90;;;;;;5093804;28;20180;-89
2023/04/05 11:12:55;;;;;;;11.80;8.27;;;11.80;99.90;;;;;;5075560;28;20180;-88
2023/04/05 11:15:38;;;;;;;12.27;7.90;;;12.10;99.90;;;;;;5095256;28;20198;-89
2023/04/05 11:18:28;;;;;;;12.67;8.40;;;12.50;98.30;;;;;;5091367;28;20164;-88
2023/04/05 11:21:27;;;;;;;12.23;8.97;;;12.80;98.30;;;;;;5021599;28;20172;-88
2023/04/05 11:24:01;;;;;;;13.00;9.70;;;13.00;97.50;;;;;;5092874;28;20615;-88
2023/04/05 11:26:44;;;;;;;13.13;9.33;;;12.60;98.20;;;;;;5089234;28;20174;-92
2023/04/05 11:29:23;;;;;;;13.83;8.90;;;12.20;98.10;;;;;;5097373;28;20145;-89
2023/04/05 11:32:01;;;;;;;11.23;8.40;;;12.20;98.00;;;;;;5059950;28;20213;-87
2023/04/05 11:35:24;;;;;;;11.60;8.60;;;12.00;98.80;;;;;;5082560;28;20180;-88
2023/04/05 11:38:16;;;;;;;12.63;7.93;;;12.00;98.00;;;;;;5080435;28;20176;-88
2023/04/05 11:41:09;;;;;;;12.70;8.83;;;12.00;98.10;;;;;;5084238;28;20192;-87
2023/04/05 11:43:59;;;;;;;12.63;9.50;;;11.90;98.00;;;;;;5081401;28;20212;-89
2023/04/05 11:46:42;;;;;;;13.40;9.13;;;12.20;97.90;;;;;;5097854;28;20157;-86
2023/04/05 11:49:15;;;;;;;13.80;8.93;;;12.30;96.90;;;;;;5084251;28;20228;-86
2023/04/05 11:52:04;;;;;;;13.50;9.00;;;12.50;97.30;;;;;;5083109;28;20157;-88
2023/04/05 11:54:45;;;;;;;15.17;9.43;;;12.80;96.70;;;;;;5082752;28;20159;-87
2023/04/05 11:57:48;;;;;;;13.07;9.23;;;13.10;96.20;;;;;;5083009;28;20156;-86
2023/04/05 12:00:17;;;;;;;12.27;8.80;;;13.40;94.80;;;;;;5081017;28;20209;-85
2023/04/05 12:03:00;;;;;;;11.17;8.47;;;13.70;94.60;;;;;;5091629;28;20176;-86
2023/04/05 12:05:25;;;;;;;14.33;9.67;;;13.70;94.60;;;;;;5081069;28;20174;-91
2023/04/05 12:07:55;;;;;;;11.60;8.20;;;13.50;92.90;;;;;;5075486;28;20174;-87
2023/04/05 12:10:34;;;;;;;10.67;8.57;;;12.90;93.50;;;;;;5066472;28;20176;-88
2023/04/05 12:13:06;;;;;;;13.73;8.60;;;12.90;93.70;;;;;;5063685;28;20199;-86
2023/04/05 12:16:00;;;;;;;13.73;9.17;;;12.70;94.10;;;;;;5078843;28;20210;-89
2023/04/05 12:18:29;;;;;;;10.63;8.57;;;13.10;95.50;;;;;;5083765;28;20688;-89
2023/04/05 12:20:55;;;;;;;12.83;8.80;;;13.10;94.10;;;;;;5050007;28;20184;-86
2023/04/05 12:23:24;;;;;;;12.93;8.63;;;12.90;93.10;;;;;;5057816;28;20171;-86
2023/04/05 12:26:18;;;;;;;12.17;8.67;;;12.80;93.20;;;;;;5077001;28;20167;-85
2023/04/05 12:29:13;;;;;;;15.00;8.93;;;12.50;93.90;;;;;;5095265;28;20282;-91
2023/04/05 12:31:49;;;;;;;12.93;9.93;;;12.40;94.60;;;;;;5073125;28;20209;-85
2023/04/05 12:34:32;;;;;;;13.47;9.37;;;12.20;93.80;;;;;;5075491;28;20176;-88
2023/04/05 12:37:02;;;;;;;13.13;9.30;;;12.20;94.40;;;;;;5071960;28;20534;-86
2023/04/05 12:39:30;;;;;;;13.83;9.43;;;12.20;93.60;;;;;;5057467;28;20203;-86
2023/04/05 12:41:59;;;;;;;11.97;9.50;;;12.30;93.30;;;;;;5074296;28;20172;-86
2023/04/05 12:45:03;;;;;;;12.23;9.37;;;12.60;93.70;;;;;;5070965;28;20233;-86
2023/04/05 12:47:42;;;;;;;14.93;9.67;;;12.70;92.60;;;;;;5055776;28;20199;-85
2023/04/05 12:50:25;;;;;;;15.93;9.47;;;13.10;93.10;;;;;;5058368;28;20178;-90
2023/04/05 12:53:01;;;;;;;12.90;9.13;;;13.50;92.20;;;;;;5092805;28;20188;-86
2023/04/05 12:55:54;;;;;;;13.47;9.37;;;13.80;92.60;;;;;;5096587;28;20185;-87
2023/04/05 12:58:22;;;;;;;15.40;10.43;;;14.00;89.80;;;;;;5080144;28;20183;-85
2023/04/05 13:01:11;;;;;;;12.20;9.27;;;14.20;89.50;;;;;;5064100;28;20188;-86
2023/04/05 13:04:07;;;;;;;12.77;10.13;;;14.30;90.00;;;;;;5080527;28;20173;-87
2023/04/05 13:06:58;;;;;;;12.40;9.17;;;14.00;89.10;;;;;;5063917;28;20192;-86
2023/04/05 13:09:24;;;;;;;13.67;10.10;;;13.70;90.80;;;;;;5061182;28;20183;-86
2023/04/05 13:12:06;;;;;;;14.03;9.80;;;13.70;89.90;;;;;;5073731;28;20193;-85
2023/04/05 13:14:35;;;;;;;13.37;9.43;;;13.70;89.10;;;;;;5075544;28;20213;-85
2023/04/05 13:17:03;;;;;;;14.37;10.60;;;13.50;89.20;;;;;;5092652;28;20186;-87
2023/04/05 13:19:29;;;;;;;13.53;10.53;;;13.90;91.00;;;;;;5076362;28;20222;-91
2023/04/05 13:21:56;;;;;;;15.23;10.37;;;14.30;90.30;;;;;;5059092;28;20183;-88